INDIA METEOROLOGICAL DEPARTMENT, R.M.C. NEW DELHI
Dated:4 - 7 - 2015
METARS


Agartala   
SPECI VEAT 040800Z 19007KT 5000 HZ SCT020 BKN100 34/27 Q0999 NOSIG=
Ahmedabad  
VAAH 040810Z 23014KT 6000 SCT020 SCT025 36/24 Q1005 NOSIG=
Amritsar   
VIAR 040800Z 22005KT 130V260 4500 DU NSC 38/24 Q0999=
Bangalore  
VOBL 040800Z 30011KT 9999 SCT015 SCT020 32/22 Q1015 NOSIG=
Baroda     
VABO 040800Z 25012G22KT 6000 SCT020 34/24 Q1006=
Bhaunagar  
VABV 040700Z 29012KT 6000 FEW020 SCT025 35/23 Q1007=
Bhopal     
VABP 040800Z 26016KT 6000 NSC 34/19 Q1006 NOSIG=
Bhubaneswar
VEBS 040800Z 19008KT 4000 HZ SCT020 FEW030CB BKN100 35/27 Q1001 TEMPO 3000 TSRA=
Bhuntar    
VIBR 040800Z 11008KT 7000 SCT030 35/19 Q1004=
Chennai    
VOMM 040810Z 27010G20KT 8000 FEW020 38/22 Q1006 NOSIG=
Coimbatore 
VOCB 040800Z 20008G18KT 7000 FEW015 SCT080 33/21 Q1012 NOSIG=
Colombo    
VCBI 040810Z 25011KT 220V300 9999 BKN016 30/24 Q1011 NOSIG=
Delhi      
VIDP 040800Z 29012KT 2500 DU FEW040 BKN100 37/23 Q1000 NOSIG =
Dehradun   
VIDN 040800Z 20007KT 2500 HZ SCT030 BKN080 31/26 Q1001=
Gauhati    
VEGT 040800Z 32004KT 5000 HZ SCT020 BKN100 33/27 Q0999 NOSIG=
Gaya       
VEGY 040800Z 28011KT 5000 HZ SCT018 37/25 Q0999 NOSIG=
Gaggal     
VIGG 040800Z 22004KT 5000 HZ SCT030 33/23 Q1004=
Goa        
VOGO 040700Z 29010G15KT 7000 FEW014 FEW022TCU SCT090 32/25 Q1011 NOSIG =
Fursatganj
VIRB 040800Z 27006KT 5000 HZ SCT020 SCT025 39/23 Q0997=
Hyderabad  
VOHS 040810Z 29013KT 6000 FEW020 33/19 Q1010 NOSIG=
Imphal     
VEIM 040730Z 30005KT 5000 HZ FEW018 SCT100 30/22 Q1005 NOSIG =
Indore     
VAID 040800Z 24014G24KT 6000 FEW020 32/20 Q1009 NOSIG =
Jaipur     
VIJP 040730Z 27011KT 3000 HZ FEW035 33/22 Q1003 NOSIG=
Khajuraho  
VAKJ 040700Z 27005KT 6000 NSC 36/24 Q1002=
Kochi      
VOCI 040800Z 29012KT 6000 FEW015 SCT020 32/24 Q1011 NOSIG=
Kolkata    
VECC 040820Z 35003KT 3500 HZ SCT020 SCT100 36/26 Q0999 NOSIG=
Kozhikode  
VOCL 040800Z 33005KT 8000 FEW015 FEW025TCU BKN090 30/23 Q1011 NOSIG=
Lucknow    
VILK 040800Z 30007KT 5000 HZ FEW020 SCT025 39/25 Q0998 NOSIG=
Ludhiana
VILD 040800Z 14002KT 5000 HZ SCT030 36/25 Q0999=
Madurai    
VOMD 040800Z 27009KT 8000 FEW020 37/21 Q1009 NOSIG=
Mohanbari  
VEMN 040800Z 05014KT 3000 HZ FEW010 SCT016 FEW025CB OVC090 29/27 Q1000 TEMPO 2000 -RA=
Mumbai     
VABB 040810Z 24013G23KT 4500 HZ FEW020 SCT025 31/25 Q1010 NOSIG=
Nagpur     
VANP 040810Z 30011KT 6000 FEW020 SCT250 35/24 Q1006 NOSIG=
Patna      
VEPT 040750Z 30006KT 5000 HZ SCT018 37/27 Q0997 NOSIG=
Raipur     
VARP 040800Z 27006KT 7000 FEW020 SCT025 33/23 Q1005 NOSIG=
Safdarjung
VIDD 040800Z 330/06G16KT 2500 BLDU SCT040 SCT100 37/25 Q1000=
Ranchi     
VERC 040800Z 27005KT 5000 HZ FEW 020 SCT025 33/22 Q1004 NOSIG=
Trichy     
VOTR 040810Z 28010G20KT 8000 FEW016 38/20 Q1007 NOSIG=
Trivandrum 
VOTV 040810Z 25012KT 6000 SCT015 FEW025TCU 32/25 Q1010 NOSIG=
Udaipur    
VAUD 040800Z 22012KT 6000 SCT030 32/23 Q1006 NOSIG=
Varanasi   
VIBN 040730Z 28007KT 5000 HZ NSC 37/24 Q1000=
Vizag      
VOVZ 040800Z 19009KT 6000 FEW018 36/26 Q1002 NOSIG =
Male       
VRMM 040800Z 22018KT 9999 -SHRA SCT017 FEW018CB 27/24 Q1014 CB N,E,W,NW TEMPO 5000 -SHRA=
Gan        
VRMG 040800Z 25009KT 9999 FEW017TCU SCT110 BKN250 31/26 Q1014=
Kathmandu   
VNKT 040820Z 21007KT 180V250 6000 -RA FEW015 FEW025CB SCT030 BKN100 27/21 Q1007 NOSIG CB TO NW AND N=
Dhaka      
VGHS 040750Z NIL=
Colombo     
VCBI 040810Z 25011KT 220V300 9999 BKN016 30/24 Q1011 NOSIG=
Karachi     
OPKC 040755Z 24024KT 6000 BKN020 34/22 Q1003 TEMPO 25015G25KT=
Lahore      
OPLA 040755Z 21006KT 5000 HZ SCT040 BKN100 39/24 Q0998 TEMPO 32030KT 2000 TSRA FEW030CB=
Leh        
VILH 040730Z 30004KT 6000 SKC 28/M18 Q1022 NOSIG=
Thoise     
VITX 040730Z 11005KT 6000 SKC 27/M18 Q1024 NOSIG=
Sri Nagar  
VISR 040730Z 19004KT 6000 FEW025 29/19 Q1009 NOSIG=
Jammu      
VIJU 040730Z 22003KT 6000 FEW030 SCT090 37/25 Q0998 NOSIG=
Jodhpur    
VIJO 040730Z 26015G25KT 6000 FEW030 35/22 Q1003 NOSIG=
Bhuj-Rudra 
VABJ 040730Z 25015G25KT 6000 SCT025 SCT030 35/23 Q1005 NOSIG=
Gorakhpur  
VEGK 040730Z 28008KT 6000 SCT250 SCT250 36/25 Q0998 NOSIG=
Allahabad  
VIAL 040730Z 24009KT 6000 SCT025 37/27 Q1000 NOSIG=
Agra       
VIAG 040730Z 24008G19KT 4000 DU FEW020 SCT030 39/21 Q1000 TEMPO 3000M=
Siliguri   
VEBD 040730Z 13005KT 6000 SCT015 SCT020 BKN090 31/27 Q0999 TEMPO RA=
Gwalior    
VIGR 040730Z 24012KT 3500 DU FEW090 37/22 Q1001 TEMPO 3000 DU=
Pune       
VAPO 040730Z 27010G20KT 6000 FEW020 SCT025 31/21 Q1013 NOSIG=
Chandigarh 
VICG 040730Z 27010KT 6000 FEW030 36/24 Q1000 NOSIG=
Jamnagar   
VAJM 040730Z 27022G32KT 6000 SCT025 34/23 Q1005 NOSIG=